sensor_id;sensor_type;location;lat;lon;timestamp;temperature;humidity
15879;DHT22;61999;51.514;14.614;2022-07-10T00:02:25;10.30;58.70
15879;DHT22;61999;51.514;14.614;2022-07-10T00:04:55;10.20;59.00
15879;DHT22;61999;51.514;14.614;2022-07-10T00:07:23;10.10;59.20
15879;DHT22;61999;51.514;14.614;2022-07-10T00:09:52;10.10;59.20
15879;DHT22;61999;51.514;14.614;2022-07-10T00:12:20;10.20;58.60
15879;DHT22;61999;51.514;14.614;2022-07-10T00:14:48;10.10;58.50
15879;DHT22;61999;51.514;14.614;2022-07-10T00:17:16;10.00;58.70
15879;DHT22;61999;51.514;14.614;2022-07-10T00:19:45;9.90;59.50
15879;DHT22;61999;51.514;14.614;2022-07-10T00:22:12;9.90;59.30
15879;DHT22;61999;51.514;14.614;2022-07-10T00:24:41;9.90;58.30
15879;DHT22;61999;51.514;14.614;2022-07-10T00:27:10;9.90;58.40
15879;DHT22;61999;51.514;14.614;2022-07-10T00:29:38;9.90;58.20
15879;DHT22;61999;51.514;14.614;2022-07-10T00:32:07;10.00;57.30
15879;DHT22;61999;51.514;14.614;2022-07-10T00:34:35;10.00;57.10
15879;DHT22;61999;51.514;14.614;2022-07-10T00:37:03;9.90;57.30
15879;DHT22;61999;51.514;14.614;2022-07-10T00:39:32;10.00;57.20
15879;DHT22;61999;51.514;14.614;2022-07-10T00:42:07;9.80;57.50
15879;DHT22;61999;51.514;14.614;2022-07-10T00:44:38;9.80;57.60
15879;DHT22;61999;51.514;14.614;2022-07-10T00:47:08;9.70;57.80
15879;DHT22;61999;51.514;14.614;2022-07-10T00:49:39;9.70;58.10
15879;DHT22;61999;51.514;14.614;2022-07-10T00:52:08;9.70;58.10
15879;DHT22;61999;51.514;14.614;2022-07-10T00:54:42;10.00;57.10
15879;DHT22;61999;51.514;14.614;2022-07-10T00:57:13;10.00;57.00
15879;DHT22;61999;51.514;14.614;2022-07-10T00:59:42;9.90;57.40
15879;DHT22;61999;51.514;14.614;2022-07-10T01:02:11;10.00;57.10
15879;DHT22;61999;51.514;14.614;2022-07-10T01:04:42;9.80;57.30
15879;DHT22;61999;51.514;14.614;2022-07-10T01:07:10;9.70;58.00
15879;DHT22;61999;51.514;14.614;2022-07-10T01:09:42;9.70;58.10
15879;DHT22;61999;51.514;14.614;2022-07-10T01:12:12;9.70;57.90
15879;DHT22;61999;51.514;14.614;2022-07-10T01:14:41;9.80;57.50
15879;DHT22;61999;51.514;14.614;2022-07-10T01:17:09;9.90;57.10
15879;DHT22;61999;51.514;14.614;2022-07-10T01:19:38;9.80;57.40
15879;DHT22;61999;51.514;14.614;2022-07-10T01:22:07;10.00;56.90
15879;DHT22;61999;51.514;14.614;2022-07-10T01:24:36;10.20;56.20
15879;DHT22;61999;51.514;14.614;2022-07-10T01:27:04;10.30;56.00
15879;DHT22;61999;51.514;14.614;2022-07-10T01:29:34;10.10;56.20
15879;DHT22;61999;51.514;14.614;2022-07-10T01:32:02;10.10;56.40
15879;DHT22;61999;51.514;14.614;2022-07-10T01:34:31;10.00;56.40
15879;DHT22;61999;51.514;14.614;2022-07-10T01:36:59;9.80;57.10
15879;DHT22;61999;51.514;14.614;2022-07-10T01:39:28;9.70;57.50
15879;DHT22;61999;51.514;14.614;2022-07-10T01:41:56;9.80;57.30
15879;DHT22;61999;51.514;14.614;2022-07-10T01:44:24;9.70;57.60
15879;DHT22;61999;51.514;14.614;2022-07-10T01:46:53;9.70;57.40
15879;DHT22;61999;51.514;14.614;2022-07-10T01:49:20;9.50;57.90
15879;DHT22;61999;51.514;14.614;2022-07-10T01:51:48;9.50;58.10
15879;DHT22;61999;51.514;14.614;2022-07-10T01:54:16;9.60;58.00
15879;DHT22;61999;51.514;14.614;2022-07-10T01:56:46;9.50;58.40
15879;DHT22;61999;51.514;14.614;2022-07-10T01:59:14;9.50;58.40
15879;DHT22;61999;51.514;14.614;2022-07-10T02:01:42;9.80;57.60
15879;DHT22;61999;51.514;14.614;2022-07-10T02:04:10;9.60;57.80
15879;DHT22;61999;51.514;14.614;2022-07-10T02:06:55;9.70;58.30
15879;DHT22;61999;51.514;14.614;2022-07-10T02:09:23;9.70;57.70
15879;DHT22;61999;51.514;14.614;2022-07-10T02:11:53;9.60;57.40
15879;DHT22;61999;51.514;14.614;2022-07-10T02:14:21;9.50;58.00
15879;DHT22;61999;51.514;14.614;2022-07-10T02:16:48;9.50;58.00
15879;DHT22;61999;51.514;14.614;2022-07-10T02:19:16;9.40;58.30
15879;DHT22;61999;51.514;14.614;2022-07-10T02:21:44;9.50;57.90
15879;DHT22;61999;51.514;14.614;2022-07-10T02:24:13;9.50;58.00
15879;DHT22;61999;51.514;14.614;2022-07-10T02:26:41;9.50;58.00
15879;DHT22;61999;51.514;14.614;2022-07-10T02:29:10;9.60;57.40
15879;DHT22;61999;51.514;14.614;2022-07-10T02:31:38;9.90;56.50
15879;DHT22;61999;51.514;14.614;2022-07-10T02:34:08;9.80;56.60
15879;DHT22;61999;51.514;14.614;2022-07-10T02:36:37;9.60;56.90
15879;DHT22;61999;51.514;14.614;2022-07-10T02:39:06;9.50;57.30
15879;DHT22;61999;51.514;14.614;2022-07-10T02:41:36;9.50;57.70
15879;DHT22;61999;51.514;14.614;2022-07-10T02:44:04;9.40;57.80
15879;DHT22;61999;51.514;14.614;2022-07-10T02:46:33;9.40;57.60
15879;DHT22;61999;51.514;14.614;2022-07-10T02:49:02;9.50;57.10
15879;DHT22;61999;51.514;14.614;2022-07-10T02:51:30;9.50;57.40
15879;DHT22;61999;51.514;14.614;2022-07-10T02:53:59;9.70;56.30
15879;DHT22;61999;51.514;14.614;2022-07-10T02:56:27;9.70;56.60
15879;DHT22;61999;51.514;14.614;2022-07-10T02:58:55;9.50;57.10
15879;DHT22;61999;51.514;14.614;2022-07-10T03:01:23;9.50;57.20
15879;DHT22;61999;51.514;14.614;2022-07-10T03:03:52;9.80;56.50
15879;DHT22;61999;51.514;14.614;2022-07-10T03:06:20;9.70;56.50
15879;DHT22;61999;51.514;14.614;2022-07-10T03:08:48;9.60;56.50
15879;DHT22;61999;51.514;14.614;2022-07-10T03:11:16;9.40;57.10
15879;DHT22;61999;51.514;14.614;2022-07-10T03:13:44;9.20;57.70
15879;DHT22;61999;51.514;14.614;2022-07-10T03:16:12;9.40;57.30
15879;DHT22;61999;51.514;14.614;2022-07-10T03:18:40;9.40;57.10
15879;DHT22;61999;51.514;14.614;2022-07-10T03:21:09;9.20;57.60
15879;DHT22;61999;51.514;14.614;2022-07-10T03:23:37;9.40;57.20
15879;DHT22;61999;51.514;14.614;2022-07-10T03:26:06;9.20;57.70
15879;DHT22;61999;51.514;14.614;2022-07-10T03:28:34;9.40;57.30
15879;DHT22;61999;51.514;14.614;2022-07-10T03:31:03;9.50;57.80
15879;DHT22;61999;51.514;14.614;2022-07-10T03:33:31;9.50;56.90
15879;DHT22;61999;51.514;14.614;2022-07-10T03:35:59;9.60;56.30
15879;DHT22;61999;51.514;14.614;2022-07-10T03:38:29;9.50;56.50
15879;DHT22;61999;51.514;14.614;2022-07-10T03:40:57;9.30;57.20
15879;DHT22;61999;51.514;14.614;2022-07-10T03:43:25;9.40;57.10
15879;DHT22;61999;51.514;14.614;2022-07-10T03:45:53;9.20;57.50
15879;DHT22;61999;51.514;14.614;2022-07-10T03:48:21;9.20;57.40
15879;DHT22;61999;51.514;14.614;2022-07-10T03:50:50;9.20;58.30
15879;DHT22;61999;51.514;14.614;2022-07-10T03:53:19;9.20;57.70
15879;DHT22;61999;51.514;14.614;2022-07-10T03:55:48;9.40;57.10
15879;DHT22;61999;51.514;14.614;2022-07-10T03:58:16;9.30;57.40
15879;DHT22;61999;51.514;14.614;2022-07-10T04:00:43;9.50;57.00
15879;DHT22;61999;51.514;14.614;2022-07-10T04:03:11;9.50;56.70
15879;DHT22;61999;51.514;14.614;2022-07-10T04:05:40;9.30;57.30
15879;DHT22;61999;51.514;14.614;2022-07-10T04:08:08;9.20;57.60
15879;DHT22;61999;51.514;14.614;2022-07-10T04:10:36;9.40;57.00
15879;DHT22;61999;51.514;14.614;2022-07-10T04:13:06;9.40;56.90
15879;DHT22;61999;51.514;14.614;2022-07-10T04:15:34;9.30;57.10
15879;DHT22;61999;51.514;14.614;2022-07-10T04:18:02;9.30;57.40
15879;DHT22;61999;51.514;14.614;2022-07-10T04:20:30;9.30;57.30
15879;DHT22;61999;51.514;14.614;2022-07-10T04:22:58;9.50;57.10
15879;DHT22;61999;51.514;14.614;2022-07-10T04:25:26;9.50;56.80
15879;DHT22;61999;51.514;14.614;2022-07-10T04:27:54;9.60;56.20
15879;DHT22;61999;51.514;14.614;2022-07-10T04:30:23;9.30;56.70
15879;DHT22;61999;51.514;14.614;2022-07-10T04:32:51;9.30;57.10
15879;DHT22;61999;51.514;14.614;2022-07-10T04:35:19;9.20;57.10
15879;DHT22;61999;51.514;14.614;2022-07-10T04:37:47;9.30;57.10
15879;DHT22;61999;51.514;14.614;2022-07-10T04:40:15;9.40;56.60
15879;DHT22;61999;51.514;14.614;2022-07-10T04:42:43;9.40;56.80
15879;DHT22;61999;51.514;14.614;2022-07-10T04:45:11;9.30;57.20
15879;DHT22;61999;51.514;14.614;2022-07-10T04:47:41;9.40;57.00
15879;DHT22;61999;51.514;14.614;2022-07-10T04:50:09;9.30;57.10
15879;DHT22;61999;51.514;14.614;2022-07-10T04:52:36;9.40;56.70
15879;DHT22;61999;51.514;14.614;2022-07-10T04:55:05;9.30;57.10
15879;DHT22;61999;51.514;14.614;2022-07-10T04:57:34;9.20;57.30
15879;DHT22;61999;51.514;14.614;2022-07-10T05:00:03;9.20;57.60
15879;DHT22;61999;51.514;14.614;2022-07-10T05:02:35;9.10;58.00
15879;DHT22;61999;51.514;14.614;2022-07-10T05:05:05;9.20;57.90
15879;DHT22;61999;51.514;14.614;2022-07-10T05:07:33;9.30;57.30
15879;DHT22;61999;51.514;14.614;2022-07-10T05:10:01;9.20;57.50
15879;DHT22;61999;51.514;14.614;2022-07-10T05:12:29;9.30;57.00
15879;DHT22;61999;51.514;14.614;2022-07-10T05:14:57;9.40;56.90
15879;DHT22;61999;51.514;14.614;2022-07-10T05:17:26;9.30;57.10
15879;DHT22;61999;51.514;14.614;2022-07-10T05:19:55;9.40;56.90
15879;DHT22;61999;51.514;14.614;2022-07-10T05:22:25;9.30;57.10
15879;DHT22;61999;51.514;14.614;2022-07-10T05:24:53;9.30;57.30
15879;DHT22;61999;51.514;14.614;2022-07-10T05:27:21;9.40;56.90
15879;DHT22;61999;51.514;14.614;2022-07-10T05:29:49;9.70;55.90
15879;DHT22;61999;51.514;14.614;2022-07-10T05:32:17;9.70;56.00
15879;DHT22;61999;51.514;14.614;2022-07-10T05:34:46;9.60;55.80
15879;DHT22;61999;51.514;14.614;2022-07-10T05:37:14;9.50;56.40
15879;DHT22;61999;51.514;14.614;2022-07-10T05:39:43;9.50;56.40
15879;DHT22;61999;51.514;14.614;2022-07-10T05:42:11;9.40;56.30
15879;DHT22;61999;51.514;14.614;2022-07-10T05:44:39;9.20;57.20
15879;DHT22;61999;51.514;14.614;2022-07-10T05:47:07;9.20;56.90
15879;DHT22;61999;51.514;14.614;2022-07-10T05:49:35;9.20;57.20
15879;DHT22;61999;51.514;14.614;2022-07-10T05:52:05;9.10;57.90
15879;DHT22;61999;51.514;14.614;2022-07-10T05:54:33;9.20;57.60
15879;DHT22;61999;51.514;14.614;2022-07-10T05:57:03;9.30;57.70
15879;DHT22;61999;51.514;14.614;2022-07-10T05:59:33;9.40;57.40
15879;DHT22;61999;51.514;14.614;2022-07-10T06:02:01;9.50;57.10
15879;DHT22;61999;51.514;14.614;2022-07-10T06:04:29;9.80;56.80
15879;DHT22;61999;51.514;14.614;2022-07-10T06:06:58;9.80;56.50
15879;DHT22;61999;51.514;14.614;2022-07-10T06:09:26;9.90;55.60
15879;DHT22;61999;51.514;14.614;2022-07-10T06:11:54;10.00;55.90
15879;DHT22;61999;51.514;14.614;2022-07-10T06:14:23;9.90;55.70
15879;DHT22;61999;51.514;14.614;2022-07-10T06:16:51;9.90;56.20
15879;DHT22;61999;51.514;14.614;2022-07-10T06:19:19;9.80;56.60
15879;DHT22;61999;51.514;14.614;2022-07-10T06:21:47;9.90;56.70
15879;DHT22;61999;51.514;14.614;2022-07-10T06:24:35;9.90;56.80
15879;DHT22;61999;51.514;14.614;2022-07-10T06:27:04;10.10;56.70
15879;DHT22;61999;51.514;14.614;2022-07-10T06:29:34;10.00;56.90
15879;DHT22;61999;51.514;14.614;2022-07-10T06:32:02;10.30;55.70
15879;DHT22;61999;51.514;14.614;2022-07-10T06:34:31;10.50;55.30
15879;DHT22;61999;51.514;14.614;2022-07-10T06:36:59;10.30;55.60
15879;DHT22;61999;51.514;14.614;2022-07-10T06:39:31;10.50;54.60
15879;DHT22;61999;51.514;14.614;2022-07-10T06:42:01;10.40;54.70
15879;DHT22;61999;51.514;14.614;2022-07-10T06:44:30;10.40;54.90
15879;DHT22;61999;51.514;14.614;2022-07-10T06:46:59;10.20;56.20
15879;DHT22;61999;51.514;14.614;2022-07-10T06:49:47;10.20;55.60
15879;DHT22;61999;51.514;14.614;2022-07-10T06:52:16;10.20;54.90
15879;DHT22;61999;51.514;14.614;2022-07-10T06:54:44;10.00;55.60
15879;DHT22;61999;51.514;14.614;2022-07-10T06:57:12;10.00;55.90
15879;DHT22;61999;51.514;14.614;2022-07-10T06:59:40;10.20;55.30
15879;DHT22;61999;51.514;14.614;2022-07-10T07:02:10;10.30;54.70
15879;DHT22;61999;51.514;14.614;2022-07-10T07:04:38;10.30;55.10
15879;DHT22;61999;51.514;14.614;2022-07-10T07:07:06;10.40;54.70
15879;DHT22;61999;51.514;14.614;2022-07-10T07:09:33;10.60;54.00
15879;DHT22;61999;51.514;14.614;2022-07-10T07:12:02;10.60;54.10
15879;DHT22;61999;51.514;14.614;2022-07-10T07:14:30;10.50;54.10
15879;DHT22;61999;51.514;14.614;2022-07-10T07:17:00;10.40;53.90
15879;DHT22;61999;51.514;14.614;2022-07-10T07:19:33;10.60;52.90
15879;DHT22;61999;51.514;14.614;2022-07-10T07:22:15;10.70;53.60
15879;DHT22;61999;51.514;14.614;2022-07-10T07:25:00;10.60;53.90
15879;DHT22;61999;51.514;14.614;2022-07-10T07:27:29;10.80;52.90
15879;DHT22;61999;51.514;14.614;2022-07-10T07:29:57;10.70;53.80
15879;DHT22;61999;51.514;14.614;2022-07-10T07:32:24;10.80;52.90
15879;DHT22;61999;51.514;14.614;2022-07-10T07:34:54;10.80;51.80
15879;DHT22;61999;51.514;14.614;2022-07-10T07:37:22;10.80;52.60
15879;DHT22;61999;51.514;14.614;2022-07-10T07:39:50;10.80;51.80
15879;DHT22;61999;51.514;14.614;2022-07-10T07:42:18;11.00;52.20
15879;DHT22;61999;51.514;14.614;2022-07-10T07:44:46;10.90;53.10
15879;DHT22;61999;51.514;14.614;2022-07-10T07:47:14;10.80;53.80
15879;DHT22;61999;51.514;14.614;2022-07-10T07:49:42;10.80;53.10
15879;DHT22;61999;51.514;14.614;2022-07-10T07:52:11;10.90;53.30
15879;DHT22;61999;51.514;14.614;2022-07-10T07:54:40;11.10;52.20
15879;DHT22;61999;51.514;14.614;2022-07-10T07:57:08;11.20;52.00
15879;DHT22;61999;51.514;14.614;2022-07-10T07:59:36;11.20;51.90
15879;DHT22;61999;51.514;14.614;2022-07-10T08:02:06;11.30;50.70
15879;DHT22;61999;51.514;14.614;2022-07-10T08:04:34;11.50;50.60
15879;DHT22;61999;51.514;14.614;2022-07-10T08:07:02;11.60;50.90
15879;DHT22;61999;51.514;14.614;2022-07-10T08:09:32;11.50;50.80
15879;DHT22;61999;51.514;14.614;2022-07-10T08:12:00;11.40;51.70
15879;DHT22;61999;51.514;14.614;2022-07-10T08:14:28;11.40;51.40
15879;DHT22;61999;51.514;14.614;2022-07-10T08:16:56;11.50;50.40
15879;DHT22;61999;51.514;14.614;2022-07-10T08:19:24;11.60;50.70
15879;DHT22;61999;51.514;14.614;2022-07-10T08:21:52;11.50;50.90
15879;DHT22;61999;51.514;14.614;2022-07-10T08:24:20;11.60;51.20
15879;DHT22;61999;51.514;14.614;2022-07-10T08:26:50;11.80;51.30
15879;DHT22;61999;51.514;14.614;2022-07-10T08:29:18;11.90;50.80
15879;DHT22;61999;51.514;14.614;2022-07-10T08:31:46;11.90;50.70
15879;DHT22;61999;51.514;14.614;2022-07-10T08:34:14;11.90;50.90
15879;DHT22;61999;51.514;14.614;2022-07-10T08:36:42;12.00;49.60
15879;DHT22;61999;51.514;14.614;2022-07-10T08:39:12;12.20;49.70
15879;DHT22;61999;51.514;14.614;2022-07-10T08:41:42;12.10;50.60
15879;DHT22;61999;51.514;14.614;2022-07-10T08:44:13;12.30;50.30
15879;DHT22;61999;51.514;14.614;2022-07-10T08:46:41;12.40;51.20
15879;DHT22;61999;51.514;14.614;2022-07-10T08:49:11;12.80;48.50
15879;DHT22;61999;51.514;14.614;2022-07-10T08:51:41;13.00;46.80
15879;DHT22;61999;51.514;14.614;2022-07-10T08:54:15;13.00;47.30
15879;DHT22;61999;51.514;14.614;2022-07-10T08:56:47;13.00;47.10
15879;DHT22;61999;51.514;14.614;2022-07-10T08:59:17;13.00;46.90
15879;DHT22;61999;51.514;14.614;2022-07-10T09:01:47;13.00;47.20
15879;DHT22;61999;51.514;14.614;2022-07-10T09:04:17;13.00;47.40
15879;DHT22;61999;51.514;14.614;2022-07-10T09:06:46;13.10;47.70
15879;DHT22;61999;51.514;14.614;2022-07-10T09:09:14;13.20;47.30
15879;DHT22;61999;51.514;14.614;2022-07-10T09:11:42;13.30;46.00
15879;DHT22;61999;51.514;14.614;2022-07-10T09:14:11;13.30;47.30
15879;DHT22;61999;51.514;14.614;2022-07-10T09:16:54;13.30;47.10
15879;DHT22;61999;51.514;14.614;2022-07-10T09:19:23;13.40;45.90
15879;DHT22;61999;51.514;14.614;2022-07-10T09:21:53;13.70;45.40
15879;DHT22;61999;51.514;14.614;2022-07-10T09:24:22;13.70;45.50
15879;DHT22;61999;51.514;14.614;2022-07-10T09:26:59;13.90;44.60
15879;DHT22;61999;51.514;14.614;2022-07-10T09:29:30;13.70;45.10
15879;DHT22;61999;51.514;14.614;2022-07-10T09:32:01;13.70;45.80
15879;DHT22;61999;51.514;14.614;2022-07-10T09:34:37;13.60;46.70
15879;DHT22;61999;51.514;14.614;2022-07-10T09:37:24;13.70;46.90
15879;DHT22;61999;51.514;14.614;2022-07-10T09:39:57;13.90;47.30
15879;DHT22;61999;51.514;14.614;2022-07-10T09:42:28;14.20;45.40
15879;DHT22;61999;51.514;14.614;2022-07-10T09:45:18;14.40;44.30
15879;DHT22;61999;51.514;14.614;2022-07-10T09:47:56;14.30;45.10
15879;DHT22;61999;51.514;14.614;2022-07-10T09:50:28;14.50;42.80
15879;DHT22;61999;51.514;14.614;2022-07-10T09:52:59;14.30;43.20
15879;DHT22;61999;51.514;14.614;2022-07-10T09:55:30;14.00;45.20
15879;DHT22;61999;51.514;14.614;2022-07-10T09:58:01;14.00;43.60
15879;DHT22;61999;51.514;14.614;2022-07-10T10:00:32;13.90;44.90
15879;DHT22;61999;51.514;14.614;2022-07-10T10:03:04;13.90;44.00
15879;DHT22;61999;51.514;14.614;2022-07-10T10:05:38;13.80;44.90
15879;DHT22;61999;51.514;14.614;2022-07-10T10:08:11;13.80;45.00
15879;DHT22;61999;51.514;14.614;2022-07-10T10:10:46;14.00;43.60
15879;DHT22;61999;51.514;14.614;2022-07-10T10:13:17;13.90;43.70
15879;DHT22;61999;51.514;14.614;2022-07-10T10:15:47;13.70;44.10
15879;DHT22;61999;51.514;14.614;2022-07-10T10:18:20;13.70;44.30
15879;DHT22;61999;51.514;14.614;2022-07-10T10:20:51;13.60;43.80
15879;DHT22;61999;51.514;14.614;2022-07-10T10:23:20;13.20;45.10
15879;DHT22;61999;51.514;14.614;2022-07-10T10:25:50;13.00;45.80
15879;DHT22;61999;51.514;14.614;2022-07-10T10:28:22;12.80;45.70
15879;DHT22;61999;51.514;14.614;2022-07-10T10:30:52;12.60;45.20
15879;DHT22;61999;51.514;14.614;2022-07-10T10:33:42;12.60;45.90
15879;DHT22;61999;51.514;14.614;2022-07-10T10:36:14;12.50;45.20
15879;DHT22;61999;51.514;14.614;2022-07-10T10:39:10;12.40;45.80
15879;DHT22;61999;51.514;14.614;2022-07-10T10:41:41;12.30;46.00
15879;DHT22;61999;51.514;14.614;2022-07-10T10:44:27;12.20;46.30
15879;DHT22;61999;51.514;14.614;2022-07-10T10:47:04;12.10;46.10
15879;DHT22;61999;51.514;14.614;2022-07-10T10:49:53;12.00;47.00
15879;DHT22;61999;51.514;14.614;2022-07-10T10:52:25;12.00;47.40
15879;DHT22;61999;51.514;14.614;2022-07-10T10:55:04;12.10;47.90
15879;DHT22;61999;51.514;14.614;2022-07-10T10:57:43;12.10;48.30
15879;DHT22;61999;51.514;14.614;2022-07-10T11:00:32;12.50;47.40
15879;DHT22;61999;51.514;14.614;2022-07-10T11:03:16;12.50;47.90
15879;DHT22;61999;51.514;14.614;2022-07-10T11:05:48;12.70;47.50
15879;DHT22;61999;51.514;14.614;2022-07-10T11:08:37;12.90;47.90
15879;DHT22;61999;51.514;14.614;2022-07-10T11:11:37;13.00;48.30
15879;DHT22;61999;51.514;14.614;2022-07-10T11:14:10;13.40;46.80
15879;DHT22;61999;51.514;14.614;2022-07-10T11:16:46;13.50;47.30
15879;DHT22;61999;51.514;14.614;2022-07-10T11:19:22;13.70;46.70
15879;DHT22;61999;51.514;14.614;2022-07-10T11:22:03;13.80;46.50
15879;DHT22;61999;51.514;14.614;2022-07-10T11:24:48;14.10;45.50
15879;DHT22;61999;51.514;14.614;2022-07-10T11:27:29;14.30;44.60
15879;DHT22;61999;51.514;14.614;2022-07-10T11:30:08;14.00;44.80
15879;DHT22;61999;51.514;14.614;2022-07-10T11:32:36;13.90;45.10
15879;DHT22;61999;51.514;14.614;2022-07-10T11:35:06;13.80;44.70
15879;DHT22;61999;51.514;14.614;2022-07-10T11:37:48;13.70;46.30
15879;DHT22;61999;51.514;14.614;2022-07-10T11:40:18;14.00;46.30
15879;DHT22;61999;51.514;14.614;2022-07-10T11:42:51;14.50;45.60
15879;DHT22;61999;51.514;14.614;2022-07-10T11:45:27;14.90;45.10
15879;DHT22;61999;51.514;14.614;2022-07-10T11:47:57;15.60;43.40
15879;DHT22;61999;51.514;14.614;2022-07-10T11:50:27;16.00;41.60
15879;DHT22;61999;51.514;14.614;2022-07-10T11:52:56;15.90;42.30
15879;DHT22;61999;51.514;14.614;2022-07-10T11:55:26;15.80;41.50
15879;DHT22;61999;51.514;14.614;2022-07-10T11:57:59;15.70;42.40
15879;DHT22;61999;51.514;14.614;2022-07-10T12:00:29;15.50;42.50
15879;DHT22;61999;51.514;14.614;2022-07-10T12:03:16;15.40;41.40
15879;DHT22;61999;51.514;14.614;2022-07-10T12:05:48;15.20;42.80
15879;DHT22;61999;51.514;14.614;2022-07-10T12:08:18;15.10;43.40
15879;DHT22;61999;51.514;14.614;2022-07-10T12:10:46;15.30;42.30
15879;DHT22;61999;51.514;14.614;2022-07-10T12:13:14;15.20;42.10
15879;DHT22;61999;51.514;14.614;2022-07-10T12:15:44;15.10;43.20
15879;DHT22;61999;51.514;14.614;2022-07-10T12:18:16;15.20;42.70
15879;DHT22;61999;51.514;14.614;2022-07-10T12:20:45;15.40;42.50
15879;DHT22;61999;51.514;14.614;2022-07-10T12:23:15;15.40;42.90
15879;DHT22;61999;51.514;14.614;2022-07-10T12:25:46;15.40;42.80
15879;DHT22;61999;51.514;14.614;2022-07-10T12:28:16;15.50;42.10
15879;DHT22;61999;51.514;14.614;2022-07-10T12:30:45;15.40;42.60
15879;DHT22;61999;51.514;14.614;2022-07-10T12:33:19;15.20;43.10
15879;DHT22;61999;51.514;14.614;2022-07-10T12:35:49;15.10;42.10
15879;DHT22;61999;51.514;14.614;2022-07-10T12:38:19;15.00;43.00
15879;DHT22;61999;51.514;14.614;2022-07-10T12:40:50;14.90;42.90
15879;DHT22;61999;51.514;14.614;2022-07-10T12:43:25;15.00;42.30
15879;DHT22;61999;51.514;14.614;2022-07-10T12:46:13;14.70;43.30
15879;DHT22;61999;51.514;14.614;2022-07-10T12:48:43;14.80;42.40
15879;DHT22;61999;51.514;14.614;2022-07-10T12:51:23;14.90;42.50
15879;DHT22;61999;51.514;14.614;2022-07-10T12:53:52;15.00;43.20
15879;DHT22;61999;51.514;14.614;2022-07-10T12:56:32;15.40;42.00
15879;DHT22;61999;51.514;14.614;2022-07-10T12:59:03;15.50;43.00
15879;DHT22;61999;51.514;14.614;2022-07-10T13:01:41;15.80;42.80
15879;DHT22;61999;51.514;14.614;2022-07-10T13:04:11;16.30;41.30
15879;DHT22;61999;51.514;14.614;2022-07-10T13:06:39;16.40;40.90
15879;DHT22;61999;51.514;14.614;2022-07-10T13:09:21;16.40;40.50
15879;DHT22;61999;51.514;14.614;2022-07-10T13:11:52;16.20;40.00
15879;DHT22;61999;51.514;14.614;2022-07-10T13:14:21;16.20;39.20
15879;DHT22;61999;51.514;14.614;2022-07-10T13:16:49;15.80;40.20
15879;DHT22;61999;51.514;14.614;2022-07-10T13:19:17;15.60;40.80
15879;DHT22;61999;51.514;14.614;2022-07-10T13:21:45;15.40;40.80
15879;DHT22;61999;51.514;14.614;2022-07-10T13:24:13;15.10;42.30
15879;DHT22;61999;51.514;14.614;2022-07-10T13:26:42;15.10;42.30
15879;DHT22;61999;51.514;14.614;2022-07-10T13:29:11;15.30;42.60
15879;DHT22;61999;51.514;14.614;2022-07-10T13:31:39;15.30;42.60
15879;DHT22;61999;51.514;14.614;2022-07-10T13:34:07;15.70;40.70
15879;DHT22;61999;51.514;14.614;2022-07-10T13:36:35;16.00;40.00
15879;DHT22;61999;51.514;14.614;2022-07-10T13:39:03;16.30;39.30
15879;DHT22;61999;51.514;14.614;2022-07-10T13:41:31;16.60;39.80
15879;DHT22;61999;51.514;14.614;2022-07-10T13:43:59;16.70;40.10
15879;DHT22;61999;51.514;14.614;2022-07-10T13:46:29;16.90;39.90
15879;DHT22;61999;51.514;14.614;2022-07-10T13:48:57;17.10;40.80
15879;DHT22;61999;51.514;14.614;2022-07-10T13:51:25;17.50;39.10
15879;DHT22;61999;51.514;14.614;2022-07-10T13:53:53;17.80;38.70
15879;DHT22;61999;51.514;14.614;2022-07-10T13:56:21;18.00;40.40
15879;DHT22;61999;51.514;14.614;2022-07-10T13:58:50;18.60;40.40
15879;DHT22;61999;51.514;14.614;2022-07-10T14:01:18;19.10;37.90
15879;DHT22;61999;51.514;14.614;2022-07-10T14:03:49;19.60;35.40
15879;DHT22;61999;51.514;14.614;2022-07-10T14:06:19;19.80;35.00
15879;DHT22;61999;51.514;14.614;2022-07-10T14:08:47;19.70;34.90
15879;DHT22;61999;51.514;14.614;2022-07-10T14:11:15;19.50;34.30
15879;DHT22;61999;51.514;14.614;2022-07-10T14:13:44;19.20;34.90
15879;DHT22;61999;51.514;14.614;2022-07-10T14:16:12;18.90;35.10
15879;DHT22;61999;51.514;14.614;2022-07-10T14:18:40;18.60;36.60
15879;DHT22;61999;51.514;14.614;2022-07-10T14:21:12;18.50;37.20
15879;DHT22;61999;51.514;14.614;2022-07-10T14:23:41;18.40;36.60
15879;DHT22;61999;51.514;14.614;2022-07-10T14:26:11;18.40;35.90
15879;DHT22;61999;51.514;14.614;2022-07-10T14:28:40;18.10;36.60
15879;DHT22;61999;51.514;14.614;2022-07-10T14:31:08;18.10;36.50
15879;DHT22;61999;51.514;14.614;2022-07-10T14:33:36;18.10;37.60
15879;DHT22;61999;51.514;14.614;2022-07-10T14:36:05;18.10;37.90
15879;DHT22;61999;51.514;14.614;2022-07-10T14:38:35;18.20;37.50
15879;DHT22;61999;51.514;14.614;2022-07-10T14:41:04;18.40;36.70
15879;DHT22;61999;51.514;14.614;2022-07-10T14:43:32;18.50;36.50
15879;DHT22;61999;51.514;14.614;2022-07-10T14:46:01;18.70;35.10
15879;DHT22;61999;51.514;14.614;2022-07-10T14:48:31;18.70;34.40
15879;DHT22;61999;51.514;14.614;2022-07-10T14:50:59;18.30;34.90
15879;DHT22;61999;51.514;14.614;2022-07-10T14:53:28;17.90;35.40
15879;DHT22;61999;51.514;14.614;2022-07-10T14:55:57;17.50;36.40
15879;DHT22;61999;51.514;14.614;2022-07-10T14:58:25;17.30;36.90
15879;DHT22;61999;51.514;14.614;2022-07-10T15:00:53;17.30;37.50
15879;DHT22;61999;51.514;14.614;2022-07-10T15:03:21;17.20;37.40
15879;DHT22;61999;51.514;14.614;2022-07-10T15:05:49;17.20;37.50
15879;DHT22;61999;51.514;14.614;2022-07-10T15:08:19;17.10;37.50
15879;DHT22;61999;51.514;14.614;2022-07-10T15:10:48;17.10;37.60
15879;DHT22;61999;51.514;14.614;2022-07-10T15:13:17;17.20;37.30
15879;DHT22;61999;51.514;14.614;2022-07-10T15:15:46;17.30;37.30
15879;DHT22;61999;51.514;14.614;2022-07-10T15:18:16;17.30;39.00
15879;DHT22;61999;51.514;14.614;2022-07-10T15:20:44;17.90;37.10
15879;DHT22;61999;51.514;14.614;2022-07-10T15:23:12;18.00;37.60
15879;DHT22;61999;51.514;14.614;2022-07-10T15:25:41;18.30;34.90
15879;DHT22;61999;51.514;14.614;2022-07-10T15:28:09;18.40;34.40
15879;DHT22;61999;51.514;14.614;2022-07-10T15:30:39;18.40;34.50
15879;DHT22;61999;51.514;14.614;2022-07-10T15:33:09;18.10;35.40
15879;DHT22;61999;51.514;14.614;2022-07-10T15:35:37;18.00;36.00
15879;DHT22;61999;51.514;14.614;2022-07-10T15:38:05;18.00;34.90
15879;DHT22;61999;51.514;14.614;2022-07-10T15:40:33;18.00;34.90
15879;DHT22;61999;51.514;14.614;2022-07-10T15:43:01;17.80;35.90